sensor_id;sensor_type;location;lat;lon;timestamp;temperature;humidity
85138;SHT31;75497;42.708;23.330;2024-01-06T00:01:01;6.14;78.29
85138;SHT31;75497;42.708;23.330;2024-01-06T00:03:26;6.22;78.07
85138;SHT31;75497;42.708;23.330;2024-01-06T00:05:51;6.20;77.78
85138;SHT31;75497;42.708;23.330;2024-01-06T00:08:17;6.23;77.65
85138;SHT31;75497;42.708;23.330;2024-01-06T00:10:43;6.22;77.71
85138;SHT31;75497;42.708;23.330;2024-01-06T00:13:10;6.30;77.40
85138;SHT31;75497;42.708;23.330;2024-01-06T00:15:35;6.30;77.21
85138;SHT31;75497;42.708;23.330;2024-01-06T00:18:00;6.27;77.40
85138;SHT31;75497;42.708;23.330;2024-01-06T00:20:26;6.24;77.48
85138;SHT31;75497;42.708;23.330;2024-01-06T00:22:51;6.30;77.44
85138;SHT31;75497;42.708;23.330;2024-01-06T00:25:17;6.30;77.56
85138;SHT31;75497;42.708;23.330;2024-01-06T00:27:42;6.24;77.59
85138;SHT31;75497;42.708;23.330;2024-01-06T00:30:08;6.31;77.22
85138;SHT31;75497;42.708;23.330;2024-01-06T00:32:33;6.13;77.51
85138;SHT31;75497;42.708;23.330;2024-01-06T00:34:59;6.23;77.34
85138;SHT31;75497;42.708;23.330;2024-01-06T00:37:24;6.06;77.54
85138;SHT31;75497;42.708;23.330;2024-01-06T00:39:50;6.14;77.32
85138;SHT31;75497;42.708;23.330;2024-01-06T00:42:15;5.99;77.66
85138;SHT31;75497;42.708;23.330;2024-01-06T00:44:41;5.93;77.67
85138;SHT31;75497;42.708;23.330;2024-01-06T00:47:06;5.82;77.92
85138;SHT31;75497;42.708;23.330;2024-01-06T00:49:32;5.79;78.42
85138;SHT31;75497;42.708;23.330;2024-01-06T00:51:58;5.79;78.55
85138;SHT31;75497;42.708;23.330;2024-01-06T00:54:23;5.76;78.60
85138;SHT31;75497;42.708;23.330;2024-01-06T00:56:49;5.75;78.67
85138;SHT31;75497;42.708;23.330;2024-01-06T00:59:14;5.73;78.54
85138;SHT31;75497;42.708;23.330;2024-01-06T01:01:40;5.37;80.18
85138;SHT31;75497;42.708;23.330;2024-01-06T01:04:05;5.45;79.76
85138;SHT31;75497;42.708;23.330;2024-01-06T01:06:31;5.62;79.29
85138;SHT31;75497;42.708;23.330;2024-01-06T01:08:56;5.51;79.91
85138;SHT31;75497;42.708;23.330;2024-01-06T01:11:22;5.55;79.55
85138;SHT31;75497;42.708;23.330;2024-01-06T01:13:47;5.54;79.50
85138;SHT31;75497;42.708;23.330;2024-01-06T01:16:13;5.51;79.78
85138;SHT31;75497;42.708;23.330;2024-01-06T01:18:38;5.52;79.77
85138;SHT31;75497;42.708;23.330;2024-01-06T01:21:04;5.69;79.07
85138;SHT31;75497;42.708;23.330;2024-01-06T01:23:29;5.69;78.89
85138;SHT31;75497;42.708;23.330;2024-01-06T01:25:55;5.75;78.97
85138;SHT31;75497;42.708;23.330;2024-01-06T01:28:20;5.65;79.15
85138;SHT31;75497;42.708;23.330;2024-01-06T01:30:46;5.63;78.94
85138;SHT31;75497;42.708;23.330;2024-01-06T01:33:11;5.71;78.88
85138;SHT31;75497;42.708;23.330;2024-01-06T01:35:37;5.82;78.32
85138;SHT31;75497;42.708;23.330;2024-01-06T01:38:02;5.75;78.57
85138;SHT31;75497;42.708;23.330;2024-01-06T01:40:28;5.63;78.55
85138;SHT31;75497;42.708;23.330;2024-01-06T01:42:53;5.65;78.55
85138;SHT31;75497;42.708;23.330;2024-01-06T01:45:19;5.66;78.34
85138;SHT31;75497;42.708;23.330;2024-01-06T01:47:45;5.66;78.12
85138;SHT31;75497;42.708;23.330;2024-01-06T01:50:12;5.68;78.40
85138;SHT31;75497;42.708;23.330;2024-01-06T01:52:40;5.63;78.28
85138;SHT31;75497;42.708;23.330;2024-01-06T01:55:06;5.68;78.55
85138;SHT31;75497;42.708;23.330;2024-01-06T01:57:32;5.65;78.66
85138;SHT31;75497;42.708;23.330;2024-01-06T01:59:58;5.69;78.34
85138;SHT31;75497;42.708;23.330;2024-01-06T02:02:25;5.68;78.59
85138;SHT31;75497;42.708;23.330;2024-01-06T02:04:50;5.71;78.68
85138;SHT31;75497;42.708;23.330;2024-01-06T02:07:16;5.68;78.83
85138;SHT31;75497;42.708;23.330;2024-01-06T02:09:42;5.81;78.75
85138;SHT31;75497;42.708;23.330;2024-01-06T02:12:07;5.75;78.93
85138;SHT31;75497;42.708;23.330;2024-01-06T02:14:33;5.82;78.61
85138;SHT31;75497;42.708;23.330;2024-01-06T02:16:58;5.75;78.95
85138;SHT31;75497;42.708;23.330;2024-01-06T02:19:24;5.75;78.72
85138;SHT31;75497;42.708;23.330;2024-01-06T02:21:52;5.72;78.65
85138;SHT31;75497;42.708;23.330;2024-01-06T02:24:18;5.68;78.51
85138;SHT31;75497;42.708;23.330;2024-01-06T02:26:43;5.75;78.52
85138;SHT31;75497;42.708;23.330;2024-01-06T02:29:09;5.73;78.85
85138;SHT31;75497;42.708;23.330;2024-01-06T02:31:34;5.73;78.69
85138;SHT31;75497;42.708;23.330;2024-01-06T02:34:00;5.83;78.70
85138;SHT31;75497;42.708;23.330;2024-01-06T02:36:25;5.85;78.45
85138;SHT31;75497;42.708;23.330;2024-01-06T02:38:51;5.76;78.58
85138;SHT31;75497;42.708;23.330;2024-01-06T02:41:17;5.81;78.34
85138;SHT31;75497;42.708;23.330;2024-01-06T02:43:42;5.92;77.99
85138;SHT31;75497;42.708;23.330;2024-01-06T02:46:08;5.83;78.09
85138;SHT31;75497;42.708;23.330;2024-01-06T02:48:33;5.85;78.23
85138;SHT31;75497;42.708;23.330;2024-01-06T02:50:59;5.81;78.36
85138;SHT31;75497;42.708;23.330;2024-01-06T02:53:24;5.79;78.32
85138;SHT31;75497;42.708;23.330;2024-01-06T02:55:52;5.86;78.13
85138;SHT31;75497;42.708;23.330;2024-01-06T02:58:17;5.93;77.57
85138;SHT31;75497;42.708;23.330;2024-01-06T03:00:43;5.95;77.47
85138;SHT31;75497;42.708;23.330;2024-01-06T03:03:08;5.90;77.63
85138;SHT31;75497;42.708;23.330;2024-01-06T03:05:34;5.95;77.24
85138;SHT31;75497;42.708;23.330;2024-01-06T03:07:59;5.69;77.98
85138;SHT31;75497;42.708;23.330;2024-01-06T03:10:25;5.62;78.75
85138;SHT31;75497;42.708;23.330;2024-01-06T03:12:51;5.66;78.66
85138;SHT31;75497;42.708;23.330;2024-01-06T03:15:16;5.73;78.31
85138;SHT31;75497;42.708;23.330;2024-01-06T03:17:42;5.81;77.63
85138;SHT31;75497;42.708;23.330;2024-01-06T03:20:08;5.90;77.22
85138;SHT31;75497;42.708;23.330;2024-01-06T03:22:34;5.95;77.19
85138;SHT31;75497;42.708;23.330;2024-01-06T03:25:00;6.03;76.70
85138;SHT31;75497;42.708;23.330;2024-01-06T03:27:25;6.00;76.80
85138;SHT31;75497;42.708;23.330;2024-01-06T03:29:51;5.96;76.77
85138;SHT31;75497;42.708;23.330;2024-01-06T03:32:16;5.86;77.04
85138;SHT31;75497;42.708;23.330;2024-01-06T03:34:42;5.81;77.16
85138;SHT31;75497;42.708;23.330;2024-01-06T03:37:08;5.90;76.77
85138;SHT31;75497;42.708;23.330;2024-01-06T03:39:33;5.98;76.39
85138;SHT31;75497;42.708;23.330;2024-01-06T03:41:59;6.00;76.01
85138;SHT31;75497;42.708;23.330;2024-01-06T03:44:25;6.03;75.99
85138;SHT31;75497;42.708;23.330;2024-01-06T03:46:56;5.96;75.98
85138;SHT31;75497;42.708;23.330;2024-01-06T03:49:23;6.03;75.77
85138;SHT31;75497;42.708;23.330;2024-01-06T03:51:49;6.03;75.72
85138;SHT31;75497;42.708;23.330;2024-01-06T03:54:14;5.98;76.04
85138;SHT31;75497;42.708;23.330;2024-01-06T03:56:40;5.98;76.32
85138;SHT31;75497;42.708;23.330;2024-01-06T03:59:05;5.90;76.24
85138;SHT31;75497;42.708;23.330;2024-01-06T04:01:31;5.82;76.27
85138;SHT31;75497;42.708;23.330;2024-01-06T04:04:00;5.69;76.69
85138;SHT31;75497;42.708;23.330;2024-01-06T04:06:26;5.75;76.52
85138;SHT31;75497;42.708;23.330;2024-01-06T04:08:52;5.69;76.74
85138;SHT31;75497;42.708;23.330;2024-01-06T04:11:20;5.68;76.95
85138;SHT31;75497;42.708;23.330;2024-01-06T04:13:46;5.72;76.84
85138;SHT31;75497;42.708;23.330;2024-01-06T04:16:11;5.72;76.91
85138;SHT31;75497;42.708;23.330;2024-01-06T04:18:37;5.58;77.02
85138;SHT31;75497;42.708;23.330;2024-01-06T04:21:03;5.42;77.52
85138;SHT31;75497;42.708;23.330;2024-01-06T04:23:28;5.47;77.19
85138;SHT31;75497;42.708;23.330;2024-01-06T04:25:54;5.41;77.09
85138;SHT31;75497;42.708;23.330;2024-01-06T04:28:19;5.28;77.26
85138;SHT31;75497;42.708;23.330;2024-01-06T04:30:45;5.20;77.36
85138;SHT31;75497;42.708;23.330;2024-01-06T04:33:10;5.13;77.31
85138;SHT31;75497;42.708;23.330;2024-01-06T04:35:36;5.08;77.39
85138;SHT31;75497;42.708;23.330;2024-01-06T04:38:01;5.08;77.30
85138;SHT31;75497;42.708;23.330;2024-01-06T04:40:27;4.84;77.79
85138;SHT31;75497;42.708;23.330;2024-01-06T04:42:52;4.63;78.66
85138;SHT31;75497;42.708;23.330;2024-01-06T04:45:18;4.73;77.60
85138;SHT31;75497;42.708;23.330;2024-01-06T04:47:45;4.73;77.64
85138;SHT31;75497;42.708;23.330;2024-01-06T04:50:10;4.73;77.92
85138;SHT31;75497;42.708;23.330;2024-01-06T04:52:36;4.63;78.45
85138;SHT31;75497;42.708;23.330;2024-01-06T04:55:01;4.46;79.17
85138;SHT31;75497;42.708;23.330;2024-01-06T04:57:27;4.58;78.74
85138;SHT31;75497;42.708;23.330;2024-01-06T04:59:53;4.59;78.83
85138;SHT31;75497;42.708;23.330;2024-01-06T05:02:18;4.52;79.28
85138;SHT31;75497;42.708;23.330;2024-01-06T05:04:44;4.50;79.21
85138;SHT31;75497;42.708;23.330;2024-01-06T05:07:09;4.46;79.40
85138;SHT31;75497;42.708;23.330;2024-01-06T05:09:35;4.55;79.08
85138;SHT31;75497;42.708;23.330;2024-01-06T05:12:00;4.58;78.99
85138;SHT31;75497;42.708;23.330;2024-01-06T05:14:26;4.48;78.88
85138;SHT31;75497;42.708;23.330;2024-01-06T05:16:51;4.35;79.36
85138;SHT31;75497;42.708;23.330;2024-01-06T05:19:17;4.12;80.39
85138;SHT31;75497;42.708;23.330;2024-01-06T05:21:49;4.18;80.14
85138;SHT31;75497;42.708;23.330;2024-01-06T05:24:14;4.18;80.28
85138;SHT31;75497;42.708;23.330;2024-01-06T05:26:40;4.36;79.84
85138;SHT31;75497;42.708;23.330;2024-01-06T05:29:05;4.24;80.07
85138;SHT31;75497;42.708;23.330;2024-01-06T05:31:31;4.31;80.04
85138;SHT31;75497;42.708;23.330;2024-01-06T05:33:56;4.41;79.81
85138;SHT31;75497;42.708;23.330;2024-01-06T05:36:22;4.34;80.37
85138;SHT31;75497;42.708;23.330;2024-01-06T05:38:47;4.44;80.09
85138;SHT31;75497;42.708;23.330;2024-01-06T05:41:13;4.49;79.98
85138;SHT31;75497;42.708;23.330;2024-01-06T05:43:38;4.35;80.55
85138;SHT31;75497;42.708;23.330;2024-01-06T05:46:04;4.53;80.02
85138;SHT31;75497;42.708;23.330;2024-01-06T05:48:29;4.59;79.40
85138;SHT31;75497;42.708;23.330;2024-01-06T05:50:55;4.62;78.68
85138;SHT31;75497;42.708;23.330;2024-01-06T05:53:20;4.70;78.18
85138;SHT31;75497;42.708;23.330;2024-01-06T05:55:47;4.77;77.60
85138;SHT31;75497;42.708;23.330;2024-01-06T05:58:12;4.84;76.96
85138;SHT31;75497;42.708;23.330;2024-01-06T06:00:38;4.84;77.26
85138;SHT31;75497;42.708;23.330;2024-01-06T06:03:04;4.96;76.52
85138;SHT31;75497;42.708;23.330;2024-01-06T06:05:29;5.04;76.43
85138;SHT31;75497;42.708;23.330;2024-01-06T06:07:55;5.03;76.84
85138;SHT31;75497;42.708;23.330;2024-01-06T06:10:21;4.91;77.10
85138;SHT31;75497;42.708;23.330;2024-01-06T06:12:47;4.96;75.96
85138;SHT31;75497;42.708;23.330;2024-01-06T06:15:12;4.91;76.06
85138;SHT31;75497;42.708;23.330;2024-01-06T06:17:39;4.91;76.10
85138;SHT31;75497;42.708;23.330;2024-01-06T06:20:05;4.99;75.95
85138;SHT31;75497;42.708;23.330;2024-01-06T06:22:32;4.75;76.39
85138;SHT31;75497;42.708;23.330;2024-01-06T06:24:58;4.50;77.63
85138;SHT31;75497;42.708;23.330;2024-01-06T06:27:24;4.55;78.04
85138;SHT31;75497;42.708;23.330;2024-01-06T06:29:50;4.52;77.79
85138;SHT31;75497;42.708;23.330;2024-01-06T06:32:16;4.53;77.92
85138;SHT31;75497;42.708;23.330;2024-01-06T06:34:42;4.38;78.12
85138;SHT31;75497;42.708;23.330;2024-01-06T06:37:07;4.41;78.46
85138;SHT31;75497;42.708;23.330;2024-01-06T06:39:33;4.52;78.32
85138;SHT31;75497;42.708;23.330;2024-01-06T06:42:00;4.46;78.25
85138;SHT31;75497;42.708;23.330;2024-01-06T06:44:26;4.70;77.69
85138;SHT31;75497;42.708;23.330;2024-01-06T06:46:52;4.62;77.41
85138;SHT31;75497;42.708;23.330;2024-01-06T06:49:17;4.58;78.00
85138;SHT31;75497;42.708;23.330;2024-01-06T06:51:43;4.66;77.52
85138;SHT31;75497;42.708;23.330;2024-01-06T06:54:13;4.86;77.38
85138;SHT31;75497;42.708;23.330;2024-01-06T06:56:40;4.99;76.90
85138;SHT31;75497;42.708;23.330;2024-01-06T06:59:05;4.84;77.34
85138;SHT31;75497;42.708;23.330;2024-01-06T07:01:31;5.07;76.82
85138;SHT31;75497;42.708;23.330;2024-01-06T07:03:56;4.90;76.88
85138;SHT31;75497;42.708;23.330;2024-01-06T07:06:22;4.83;77.66
85138;SHT31;75497;42.708;23.330;2024-01-06T07:08:48;4.96;77.25
85138;SHT31;75497;42.708;23.330;2024-01-06T07:11:13;4.94;77.03
85138;SHT31;75497;42.708;23.330;2024-01-06T07:13:40;5.03;76.55
85138;SHT31;75497;42.708;23.330;2024-01-06T07:16:06;5.26;76.33
85138;SHT31;75497;42.708;23.330;2024-01-06T07:18:32;5.23;75.38
85138;SHT31;75497;42.708;23.330;2024-01-06T07:20:58;5.35;75.98
85138;SHT31;75497;42.708;23.330;2024-01-06T07:23:23;5.49;75.14
85138;SHT31;75497;42.708;23.330;2024-01-06T07:25:49;5.26;75.70
85138;SHT31;75497;42.708;23.330;2024-01-06T07:28:14;5.59;75.46
85138;SHT31;75497;42.708;23.330;2024-01-06T07:30:40;5.86;74.53
85138;SHT31;75497;42.708;23.330;2024-01-06T07:33:05;6.06;73.75
85138;SHT31;75497;42.708;23.330;2024-01-06T07:35:31;6.29;72.98
85138;SHT31;75497;42.708;23.330;2024-01-06T07:37:56;6.22;73.51
85138;SHT31;75497;42.708;23.330;2024-01-06T07:40:22;6.33;73.33
85138;SHT31;75497;42.708;23.330;2024-01-06T07:42:48;6.23;73.37
85138;SHT31;75497;42.708;23.330;2024-01-06T07:45:14;6.03;73.75
85138;SHT31;75497;42.708;23.330;2024-01-06T07:47:39;6.00;73.48
85138;SHT31;75497;42.708;23.330;2024-01-06T07:50:05;5.76;74.91
85138;SHT31;75497;42.708;23.330;2024-01-06T07:52:31;5.62;75.42
85138;SHT31;75497;42.708;23.330;2024-01-06T07:54:58;5.79;74.54
85138;SHT31;75497;42.708;23.330;2024-01-06T07:57:23;6.02;74.44
85138;SHT31;75497;42.708;23.330;2024-01-06T07:59:49;6.06;73.28
85138;SHT31;75497;42.708;23.330;2024-01-06T08:02:16;6.12;73.33
85138;SHT31;75497;42.708;23.330;2024-01-06T08:04:42;6.26;72.71
85138;SHT31;75497;42.708;23.330;2024-01-06T08:07:08;6.55;71.86
85138;SHT31;75497;42.708;23.330;2024-01-06T08:09:33;6.54;71.75
85138;SHT31;75497;42.708;23.330;2024-01-06T08:11:59;6.72;70.80
85138;SHT31;75497;42.708;23.330;2024-01-06T08:14:24;6.67;70.81
85138;SHT31;75497;42.708;23.330;2024-01-06T08:16:50;6.51;71.27
85138;SHT31;75497;42.708;23.330;2024-01-06T08:19:15;6.75;70.67
85138;SHT31;75497;42.708;23.330;2024-01-06T08:21:41;6.71;70.19
85138;SHT31;75497;42.708;23.330;2024-01-06T08:24:06;7.15;71.26
85138;SHT31;75497;42.708;23.330;2024-01-06T08:26:32;6.92;69.05
85138;SHT31;75497;42.708;23.330;2024-01-06T08:28:58;6.88;69.49
85138;SHT31;75497;42.708;23.330;2024-01-06T08:31:23;6.78;69.61
85138;SHT31;75497;42.708;23.330;2024-01-06T08:33:49;7.06;67.21
85138;SHT31;75497;42.708;23.330;2024-01-06T08:36:14;7.32;66.88
85138;SHT31;75497;42.708;23.330;2024-01-06T08:38:40;7.49;65.62
85138;SHT31;75497;42.708;23.330;2024-01-06T08:41:05;7.84;64.86
85138;SHT31;75497;42.708;23.330;2024-01-06T08:43:31;7.83;64.66
85138;SHT31;75497;42.708;23.330;2024-01-06T08:45:56;8.08;64.05
85138;SHT31;75497;42.708;23.330;2024-01-06T08:48:22;7.93;64.08
85138;SHT31;75497;42.708;23.330;2024-01-06T08:50:47;8.48;63.41
85138;SHT31;75497;42.708;23.330;2024-01-06T08:53:13;8.65;62.29
85138;SHT31;75497;42.708;23.330;2024-01-06T08:55:39;8.73;62.17
85138;SHT31;75497;42.708;23.330;2024-01-06T08:58:04;8.45;62.77
85138;SHT31;75497;42.708;23.330;2024-01-06T09:00:31;8.41;62.46
85138;SHT31;75497;42.708;23.330;2024-01-06T09:02:56;8.91;61.11
85138;SHT31;75497;42.708;23.330;2024-01-06T09:05:22;8.93;60.55
85138;SHT31;75497;42.708;23.330;2024-01-06T09:07:47;8.75;61.05
85138;SHT31;75497;42.708;23.330;2024-01-06T09:10:16;8.62;61.50
85138;SHT31;75497;42.708;23.330;2024-01-06T09:12:42;8.90;60.89
85138;SHT31;75497;42.708;23.330;2024-01-06T09:15:08;8.79;60.62
85138;SHT31;75497;42.708;23.330;2024-01-06T09:17:33;9.39;68.26
85138;SHT31;75497;42.708;23.330;2024-01-06T09:20:00;9.08;59.34
85138;SHT31;75497;42.708;23.330;2024-01-06T09:22:26;9.31;58.33
85138;SHT31;75497;42.708;23.330;2024-01-06T09:24:52;9.28;59.79
85138;SHT31;75497;42.708;23.330;2024-01-06T09:27:18;9.17;58.72
85138;SHT31;75497;42.708;23.330;2024-01-06T09:29:43;9.26;58.63
85138;SHT31;75497;42.708;23.330;2024-01-06T09:32:09;9.21;58.64
85138;SHT31;75497;42.708;23.330;2024-01-06T09:34:34;8.90;60.23
85138;SHT31;75497;42.708;23.330;2024-01-06T09:37:00;8.90;60.38
85138;SHT31;75497;42.708;23.330;2024-01-06T09:39:25;8.63;61.18
85138;SHT31;75497;42.708;23.330;2024-01-06T09:41:51;8.69;61.45
85138;SHT31;75497;42.708;23.330;2024-01-06T09:44:17;8.80;60.83
85138;SHT31;75497;42.708;23.330;2024-01-06T09:46:44;8.76;61.38
85138;SHT31;75497;42.708;23.330;2024-01-06T09:49:10;8.87;61.52
85138;SHT31;75497;42.708;23.330;2024-01-06T09:51:36;8.89;60.71
85138;SHT31;75497;42.708;23.330;2024-01-06T09:54:08;8.77;61.35
85138;SHT31;75497;42.708;23.330;2024-01-06T09:56:34;8.56;61.89
85138;SHT31;75497;42.708;23.330;2024-01-06T09:59:00;8.53;62.03
85138;SHT31;75497;42.708;23.330;2024-01-06T10:01:25;8.75;61.08
85138;SHT31;75497;42.708;23.330;2024-01-06T10:03:51;8.94;60.67
85138;SHT31;75497;42.708;23.330;2024-01-06T10:06:17;8.72;61.26
85138;SHT31;75497;42.708;23.330;2024-01-06T10:08:44;8.73;61.36
85138;SHT31;75497;42.708;23.330;2024-01-06T10:11:09;8.70;61.92
85138;SHT31;75497;42.708;23.330;2024-01-06T10:13:36;8.94;61.60
85138;SHT31;75497;42.708;23.330;2024-01-06T10:16:06;8.96;60.68
85138;SHT31;75497;42.708;23.330;2024-01-06T10:18:32;8.84;59.80
85138;SHT31;75497;42.708;23.330;2024-01-06T10:20:58;8.86;59.95
85138;SHT31;75497;42.708;23.330;2024-01-06T10:23:26;8.84;59.89
85138;SHT31;75497;42.708;23.330;2024-01-06T10:25:55;8.69;60.66
85138;SHT31;75497;42.708;23.330;2024-01-06T10:28:21;8.81;60.20
85138;SHT31;75497;42.708;23.330;2024-01-06T10:30:49;8.81;59.09
85138;SHT31;75497;42.708;23.330;2024-01-06T10:33:16;9.07;57.95
85138;SHT31;75497;42.708;23.330;2024-01-06T10:35:42;9.23;58.66
85138;SHT31;75497;42.708;23.330;2024-01-06T10:38:07;9.49;58.94
85138;SHT31;75497;42.708;23.330;2024-01-06T10:40:33;9.32;58.33
85138;SHT31;75497;42.708;23.330;2024-01-06T10:43:00;9.28;58.65
85138;SHT31;75497;42.708;23.330;2024-01-06T10:45:28;9.47;58.30
85138;SHT31;75497;42.708;23.330;2024-01-06T10:47:54;9.52;58.38
85138;SHT31;75497;42.708;23.330;2024-01-06T10:50:21;9.62;58.35
85138;SHT31;75497;42.708;23.330;2024-01-06T10:52:47;9.58;58.24
85138;SHT31;75497;42.708;23.330;2024-01-06T10:55:15;9.38;58.51
85138;SHT31;75497;42.708;23.330;2024-01-06T10:57:43;9.59;58.26
85138;SHT31;75497;42.708;23.330;2024-01-06T11:00:10;9.69;58.40
85138;SHT31;75497;42.708;23.330;2024-01-06T11:02:36;9.78;57.49
85138;SHT31;75497;42.708;23.330;2024-01-06T11:05:03;10.00;56.86
85138;SHT31;75497;42.708;23.330;2024-01-06T11:07:33;10.14;56.88
85138;SHT31;75497;42.708;23.330;2024-01-06T11:10:14;10.33;56.28
85138;SHT31;75497;42.708;23.330;2024-01-06T11:12:43;10.16;56.92
85138;SHT31;75497;42.708;23.330;2024-01-06T11:15:09;10.16;57.22
85138;SHT31;75497;42.708;23.330;2024-01-06T11:17:54;10.50;56.29
85138;SHT31;75497;42.708;23.330;2024-01-06T11:20:21;10.84;55.88
85138;SHT31;75497;42.708;23.330;2024-01-06T11:22:48;10.98;55.12
85138;SHT31;75497;42.708;23.330;2024-01-06T11:25:20;11.19;54.73
85138;SHT31;75497;42.708;23.330;2024-01-06T11:27:48;11.42;54.17
85138;SHT31;75497;42.708;23.330;2024-01-06T11:30:21;11.77;52.56
85138;SHT31;75497;42.708;23.330;2024-01-06T11:32:47;12.62;51.08
85138;SHT31;75497;42.708;23.330;2024-01-06T11:35:15;13.33;48.83
85138;SHT31;75497;42.708;23.330;2024-01-06T11:43:01;14.32;45.57
85138;SHT31;75497;42.708;23.330;2024-01-06T11:45:28;14.53;45.43
85138;SHT31;75497;42.708;23.330;2024-01-06T11:47:57;14.49;44.61
85138;SHT31;75497;42.708;23.330;2024-01-06T11:50:25;14.22;44.97
85138;SHT31;75497;42.708;23.330;2024-01-06T11:52:51;14.06;46.02
85138;SHT31;75497;42.708;23.330;2024-01-06T11:55:18;13.97;46.46
85138;SHT31;75497;42.708;23.330;2024-01-06T11:57:44;14.12;46.16
85138;SHT31;75497;42.708;23.330;2024-01-06T12:00:11;14.86;44.26
85138;SHT31;75497;42.708;23.330;2024-01-06T12:02:37;15.27;43.54
85138;SHT31;75497;42.708;23.330;2024-01-06T12:05:02;15.70;43.03
85138;SHT31;75497;42.708;23.330;2024-01-06T12:07:28;15.25;43.37
85138;SHT31;75497;42.708;23.330;2024-01-06T12:10:01;14.87;44.03
85138;SHT31;75497;42.708;23.330;2024-01-06T12:12:27;14.39;45.09
85138;SHT31;75497;42.708;23.330;2024-01-06T12:14:52;14.15;46.13
85138;SHT31;75497;42.708;23.330;2024-01-06T12:17:20;13.30;48.21
85138;SHT31;75497;42.708;23.330;2024-01-06T12:19:46;13.06;48.77
85138;SHT31;75497;42.708;23.330;2024-01-06T12:22:14;12.93;49.26
85138;SHT31;75497;42.708;23.330;2024-01-06T12:24:40;12.76;50.08
85138;SHT31;75497;42.708;23.330;2024-01-06T12:27:08;12.86;49.79
85138;SHT31;75497;42.708;23.330;2024-01-06T12:29:42;12.51;50.88
85138;SHT31;75497;42.708;23.330;2024-01-06T12:32:11;12.20;51.71
85138;SHT31;75497;42.708;23.330;2024-01-06T12:34:39;12.23;51.75
85138;SHT31;75497;42.708;23.330;2024-01-06T12:37:05;11.98;52.46
85138;SHT31;75497;42.708;23.330;2024-01-06T12:39:33;11.77;52.88
85138;SHT31;75497;42.708;23.330;2024-01-06T12:41:58;11.66;53.17
85138;SHT31;75497;42.708;23.330;2024-01-06T12:44:27;11.26;54.97
85138;SHT31;75497;42.708;23.330;2024-01-06T12:46:53;11.79;54.08
85138;SHT31;75497;42.708;23.330;2024-01-06T12:49:19;12.42;52.25
85138;SHT31;75497;42.708;23.330;2024-01-06T12:51:44;12.24;52.25
85138;SHT31;75497;42.708;23.330;2024-01-06T12:54:10;12.08;53.13
85138;SHT31;75497;42.708;23.330;2024-01-06T12:56:35;11.89;53.56
85138;SHT31;75497;42.708;23.330;2024-01-06T12:59:01;12.58;52.57
85138;SHT31;75497;42.708;23.330;2024-01-06T13:01:27;12.91;51.56
85138;SHT31;75497;42.708;23.330;2024-01-06T13:03:53;13.46;49.81
85138;SHT31;75497;42.708;23.330;2024-01-06T13:06:19;14.21;48.37
85138;SHT31;75497;42.708;23.330;2024-01-06T13:08:45;14.97;46.43
85138;SHT31;75497;42.708;23.330;2024-01-06T13:11:11;15.93;44.08
85138;SHT31;75497;42.708;23.330;2024-01-06T13:13:36;16.57;42.56
85138;SHT31;75497;42.708;23.330;2024-01-06T13:16:02;17.97;40.28
85138;SHT31;75497;42.708;23.330;2024-01-06T13:18:29;18.55;38.86
85138;SHT31;75497;42.708;23.330;2024-01-06T13:20:55;18.73;38.19
85138;SHT31;75497;42.708;23.330;2024-01-06T13:23:20;19.50;37.62
85138;SHT31;75497;42.708;23.330;2024-01-06T13:25:46;19.44;36.39
85138;SHT31;75497;42.708;23.330;2024-01-06T13:28:11;19.44;36.54
85138;SHT31;75497;42.708;23.330;2024-01-06T13:30:37;19.61;36.46
85138;SHT31;75497;42.708;23.330;2024-01-06T13:33:05;19.71;36.40
85138;SHT31;75497;42.708;23.330;2024-01-06T13:35:30;20.09;35.51
85138;SHT31;75497;42.708;23.330;2024-01-06T13:37:57;20.05;35.90
85138;SHT31;75497;42.708;23.330;2024-01-06T13:40:22;20.09;36.05
85138;SHT31;75497;42.708;23.330;2024-01-06T13:42:49;20.83;34.83
85138;SHT31;75497;42.708;23.330;2024-01-06T13:45:16;19.96;35.73
85138;SHT31;75497;42.708;23.330;2024-01-06T13:47:42;20.04;36.12
85138;SHT31;75497;42.708;23.330;2024-01-06T13:50:15;19.75;36.84
85138;SHT31;75497;42.708;23.330;2024-01-06T13:52:42;19.86;36.47
85138;SHT31;75497;42.708;23.330;2024-01-06T13:55:08;19.13;37.87
85138;SHT31;75497;42.708;23.330;2024-01-06T13:57:33;18.41;39.38
85138;SHT31;75497;42.708;23.330;2024-01-06T13:59:59;17.38;41.25
85138;SHT31;75497;42.708;23.330;2024-01-06T14:02:25;16.94;42.23
85138;SHT31;75497;42.708;23.330;2024-01-06T14:04:51;16.48;43.15
85138;SHT31;75497;42.708;23.330;2024-01-06T14:07:17;16.26;43.90
85138;SHT31;75497;42.708;23.330;2024-01-06T14:09:47;15.70;45.12
85138;SHT31;75497;42.708;23.330;2024-01-06T14:12:12;15.34;46.21
85138;SHT31;75497;42.708;23.330;2024-01-06T14:14:39;15.24;46.30
85138;SHT31;75497;42.708;23.330;2024-01-06T14:17:05;15.10;46.57
85138;SHT31;75497;42.708;23.330;2024-01-06T14:19:30;14.79;47.73
85138;SHT31;75497;42.708;23.330;2024-01-06T14:21:56;14.30;48.65
85138;SHT31;75497;42.708;23.330;2024-01-06T14:24:21;14.45;48.91
85138;SHT31;75497;42.708;23.330;2024-01-06T14:26:50;14.39;49.35
85138;SHT31;75497;42.708;23.330;2024-01-06T14:29:16;15.32;46.92
85138;SHT31;75497;42.708;23.330;2024-01-06T14:31:45;15.55;46.19
85138;SHT31;75497;42.708;23.330;2024-01-06T14:34:11;15.41;46.53
85138;SHT31;75497;42.708;23.330;2024-01-06T14:36:36;15.18;46.92
85138;SHT31;75497;42.708;23.330;2024-01-06T14:39:02;14.72;48.07
85138;SHT31;75497;42.708;23.330;2024-01-06T14:41:29;14.18;49.31
85138;SHT31;75497;42.708;23.330;2024-01-06T14:43:55;13.70;50.80
85138;SHT31;75497;42.708;23.330;2024-01-06T14:46:20;13.50;51.37
85138;SHT31;75497;42.708;23.330;2024-01-06T14:48:46;13.23;52.03
85138;SHT31;75497;42.708;23.330;2024-01-06T14:51:11;13.27;51.84
85138;SHT31;75497;42.708;23.330;2024-01-06T14:53:37;12.97;52.93
85138;SHT31;75497;42.708;23.330;2024-01-06T14:56:02;12.66;53.83
85138;SHT31;75497;42.708;23.330;2024-01-06T14:58:29;12.49;54.44
85138;SHT31;75497;42.708;23.330;2024-01-06T15:00:55;12.37;54.75
85138;SHT31;75497;42.708;23.330;2024-01-06T15:03:20;12.32;54.71
85138;SHT31;75497;42.708;23.330;2024-01-06T15:05:46;12.03;55.76
85138;SHT31;75497;42.708;23.330;2024-01-06T15:08:12;11.91;56.63
85138;SHT31;75497;42.708;23.330;2024-01-06T15:10:37;11.93;56.59
85138;SHT31;75497;42.708;23.330;2024-01-06T15:13:03;11.60;57.57
85138;SHT31;75497;42.708;23.330;2024-01-06T15:15:29;11.62;57.94
85138;SHT31;75497;42.708;23.330;2024-01-06T15:17:55;11.47;58.19
85138;SHT31;75497;42.708;23.330;2024-01-06T15:20:20;11.46;58.27
85138;SHT31;75497;42.708;23.330;2024-01-06T15:22:48;11.28;58.64
85138;SHT31;75497;42.708;23.330;2024-01-06T15:25:13;11.11;59.22